Frankfort, MI (49635)

2:42 AM EDT on October 23, 2014 (GMT -0400)
Frankfort | Change Station
CLOSE
Current Station
Airport
Location: Frankfort,
Elevation: 633 ft
Nearby Weather Stations

Elev 633 ft 44.63 °N, 86.20 °W | Updated 6 minutes ago

Clear
Clear
30 °F
Feels Like 30 °F
N
0
Wind Variable Wind from North

Today
High -- | Low -- °F
--% Chance of Precip.
Yesterday
High -- | Low -- °F
Precip. -- in
8:10 AM 6:47 PM
Waning Crescent, 0% visible
Pressure 30.26 in
Visibility 10.0 miles
Clouds Clear
Dew Point 28 °F
Humidity 91%
Rainfall 0.00 in
Snow Depth Not available.
UV 0 out of 12
Pollen .30 out of 12
PM2.5 Good
Flu Activity Sporadic
METAR KFKS 230636Z AUTO 00000KT 10SM CLR M01/M02 A3026 RMK AO2 T10111024

More Conditions Fewer Conditions

Pressure 30.26 in
Visibility 10.0 miles
Clouds Clear
Dew Point 28 °F
Humidity 91%
Rainfall 0.00 in
Snow Depth Not available.
UV 0 out of 12
Pollen .30 out of 12
PM2.5 Good
Flu Activity Sporadic
METAR KFKS 230636Z AUTO 00000KT 10SM CLR M01/M02 A3026 RMK AO2 T10111024

More Conditions Fewer Conditions

Nowcast | as of 2:00 am EDT on October 23, 2014

At 3 am...clear. Temperature 34. Light winds. At 5 am...clear. Temperature 34. Light winds. At 7 am...clear. Patchy fog. Temperature 33. Light winds. At 9 am...clear. Patchy fog. Temperature 40. South winds 7 mph.

×

10-Day Weather Forecast

Almanac

Astronomy

Oct. 23, 2014 Rise Set
Actual Time 8:10 AM EDT 6:47 PM EDT
Civil Twilight 7:40 AM EDT 7:16 PM EDT
Nautical Twilight 7:06 AM EDT 7:50 PM EDT
Astronomical Twilight 6:32 AM EDT 8:24 PM EDT
Moon 7:48 AM EDT 6:48 PM EDT
Length of Visible Light 11h 36m
Length of Day
10h 36m
Tomorrow will be 2m 53s shorter.
Waning Crescent, 0% of the Moon is Illuminated
Today
Waning Crescent
Oct 23
New
Oct 30
First Quarter
Nov 6
Full
Nov 14
Last Quarter

Today's Extremes

State Highs State Lows

Community

WunderPhotos

Upload Photos

1,764,194 photos uploaded!

Nearby

Air Quality

  Air Quality AQ Index Pollutant
Yesterday Good
OZONE
Yesterday Good
PM2.5
Current Good
PM2.5
Thursday Good
PM2.5
Friday Good
PM2.5
Saturday Good
PM2.5
Sunday Good
PM2.5
Monday Good
PM2.5

Snow Depth

Station Depth Elevation
No new snow has been reported.

Earthquake Activity

City Distance Mag. Time & Date
No recent earthquake activity has been reported nearby.
Minimum magnitude displayed is 2.5.

Coastal Water Temperatures

Place Temperature
No Stations Reporting

Nearby Weather Stations